NWS246 UWKD-ULLI
Flight info
| Callsign | NWS246 |
|---|---|
| Flight time | 1h 53m |
| Altitude | 36000 |
| Route | APTAR L158 IRGOS T613 DOGOB M864 IBROT T784 ROKUR |
| Aircraft | B738/M-SDE1E2E3FGHIJ2J3J4J5M1RWXYZ/LB1D1 |
Departure
| Time | 2026-05-05 14:41 |
|---|---|
| Airport | Kazan International Airport (UWKD) |
Arrival
| Time | 2026-05-05 16:34 |
|---|---|
| Airport | Pulkovo Airport (ULLI) |
| Time | Latitude | Longitude | Altitude | Speed | Heading |
|---|---|---|---|---|---|
| 2026-05-05 14:26 | 55.60808 | 49.29690 | 407 ft | 0 kts | 34° |
| 2026-05-05 14:34 | 55.60807 | 49.29690 | 407 ft | 0 kts | 34° |
| 2026-05-05 14:34 | 55.60796 | 49.29675 | 407 ft | 2 kts | 34° |
| 2026-05-05 14:34 | 55.60783 | 49.29660 | 407 ft | 2 kts | 33° |
| 2026-05-05 14:34 | 55.60771 | 49.29646 | 407 ft | 2 kts | 34° |
| 2026-05-05 14:35 | 55.60761 | 49.29628 | 407 ft | 2 kts | 79° |
| 2026-05-05 14:35 | 55.60764 | 49.29602 | 406 ft | 2 kts | 131° |
| 2026-05-05 14:35 | 55.60772 | 49.29587 | 406 ft | 0 kts | 126° |
| 2026-05-05 14:35 | 55.60773 | 49.29584 | 406 ft | 0 kts | 124° |
| 2026-05-05 14:37 | 55.60770 | 49.29593 | 406 ft | 5 kts | 124° |
| 2026-05-05 14:37 | 55.60716 | 49.29731 | 408 ft | 17 kts | 124° |
| 2026-05-05 14:37 | 55.60643 | 49.29919 | 410 ft | 15 kts | 124° |
| 2026-05-05 14:37 | 55.60589 | 49.30059 | 412 ft | 11 kts | 127° |
| 2026-05-05 14:38 | 55.60529 | 49.30087 | 413 ft | 10 kts | 200° |
| 2026-05-05 14:38 | 55.60422 | 49.29961 | 412 ft | 24 kts | 214° |
| 2026-05-05 14:38 | 55.60263 | 49.29893 | 409 ft | 24 kts | 163° |
| 2026-05-05 14:38 | 55.60125 | 49.30005 | 408 ft | 19 kts | 154° |
| 2026-05-05 14:39 | 55.60002 | 49.30109 | 406 ft | 19 kts | 154° |
| 2026-05-05 14:39 | 55.59877 | 49.30070 | 401 ft | 16 kts | 216° |
| 2026-05-05 14:39 | 55.59829 | 49.29966 | 400 ft | 10 kts | 266° |
| 2026-05-05 14:39 | 55.59855 | 49.29865 | 400 ft | 8 kts | 304° |
| 2026-05-05 14:40 | 55.59954 | 49.29611 | 401 ft | 62 kts | 304° |
| 2026-05-05 14:40 | 55.60193 | 49.28992 | 397 ft | 117 kts | 304° |
| 2026-05-05 14:40 | 55.60790 | 49.27465 | 410 ft | 181 kts | 300° |
| 2026-05-05 14:40 | 55.61562 | 49.25508 | 949 ft | 207 kts | 301° |
| 2026-05-05 14:41 | 55.62113 | 49.23179 | 1835 ft | 214 kts | 276° |
| 2026-05-05 14:41 | 55.61994 | 49.20577 | 2480 ft | 221 kts | 253° |
| 2026-05-05 14:41 | 55.61385 | 49.18007 | 3063 ft | 231 kts | 244° |
| 2026-05-05 14:41 | 55.60691 | 49.15456 | 3742 ft | 239 kts | 245° |
| 2026-05-05 14:42 | 55.59992 | 49.12763 | 4574 ft | 243 kts | 246° |
| 2026-05-05 14:42 | 55.59298 | 49.09980 | 5178 ft | 258 kts | 247° |
| 2026-05-05 14:42 | 55.58572 | 49.07031 | 5987 ft | 265 kts | 248° |
| 2026-05-05 14:42 | 55.57838 | 49.04059 | 6768 ft | 270 kts | 248° |
| 2026-05-05 14:43 | 55.57082 | 49.01004 | 7522 ft | 276 kts | 248° |
| 2026-05-05 14:43 | 55.56304 | 48.97871 | 7828 ft | 286 kts | 247° |
| 2026-05-05 14:43 | 55.55495 | 48.94620 | 7870 ft | 287 kts | 247° |
| 2026-05-05 14:43 | 55.54689 | 48.91394 | 8080 ft | 293 kts | 247° |
| 2026-05-05 14:44 | 55.53894 | 48.88212 | 9172 ft | 284 kts | 247° |
| 2026-05-05 14:44 | 55.53103 | 48.85051 | 10030 ft | 285 kts | 247° |
| 2026-05-05 14:44 | 55.52284 | 48.81775 | 10530 ft | 298 kts | 247° |
| 2026-05-05 14:44 | 55.51440 | 48.78404 | 11176 ft | 305 kts | 248° |
| 2026-05-05 14:45 | 55.50583 | 48.74992 | 11905 ft | 308 kts | 248° |
| 2026-05-05 14:45 | 55.49726 | 48.71586 | 12651 ft | 309 kts | 248° |
| 2026-05-05 14:45 | 55.48850 | 48.68109 | 13361 ft | 313 kts | 248° |
| 2026-05-05 14:45 | 55.47975 | 48.64644 | 14056 ft | 316 kts | 248° |
| 2026-05-05 14:46 | 55.47079 | 48.61095 | 14667 ft | 321 kts | 248° |
| 2026-05-05 14:46 | 55.46205 | 48.57367 | 14834 ft | 332 kts | 253° |
| 2026-05-05 14:46 | 55.45738 | 48.53455 | 14847 ft | 329 kts | 269° |
| 2026-05-05 14:46 | 55.45992 | 48.49445 | 15308 ft | 331 kts | 285° |
| 2026-05-05 14:47 | 55.46614 | 48.45696 | 16321 ft | 321 kts | 287° |
| 2026-05-05 14:47 | 55.47274 | 48.41905 | 16983 ft | 324 kts | 288° |
| 2026-05-05 14:47 | 55.47932 | 48.38142 | 17608 ft | 327 kts | 288° |
| 2026-05-05 14:47 | 55.48593 | 48.34343 | 18221 ft | 329 kts | 287° |
| 2026-05-05 14:48 | 55.49266 | 48.30468 | 18839 ft | 332 kts | 287° |
| 2026-05-05 14:48 | 55.49934 | 48.26605 | 19436 ft | 334 kts | 287° |
| 2026-05-05 14:48 | 55.50608 | 48.22695 | 20037 ft | 336 kts | 287° |
| 2026-05-05 14:48 | 55.51287 | 48.18747 | 20597 ft | 338 kts | 287° |
| 2026-05-05 14:49 | 55.51967 | 48.14784 | 21141 ft | 341 kts | 287° |
| 2026-05-05 14:49 | 55.52652 | 48.10781 | 21697 ft | 343 kts | 287° |
| 2026-05-05 14:49 | 55.53339 | 48.06759 | 22211 ft | 346 kts | 287° |
| 2026-05-05 14:49 | 55.54032 | 48.02691 | 22738 ft | 348 kts | 287° |
| 2026-05-05 14:50 | 55.54722 | 47.98635 | 23211 ft | 351 kts | 287° |
| 2026-05-05 14:50 | 55.55422 | 47.94505 | 23769 ft | 352 kts | 287° |
| 2026-05-05 14:50 | 55.56121 | 47.90379 | 24232 ft | 355 kts | 286° |
| 2026-05-05 14:50 | 55.56830 | 47.86177 | 24752 ft | 356 kts | 286° |
| 2026-05-05 14:51 | 55.57531 | 47.82017 | 25229 ft | 358 kts | 286° |
| 2026-05-05 14:51 | 55.58237 | 47.77819 | 25683 ft | 360 kts | 286° |
| 2026-05-05 14:51 | 55.58946 | 47.73587 | 26125 ft | 362 kts | 286° |
| 2026-05-05 14:51 | 55.59665 | 47.69287 | 26562 ft | 364 kts | 286° |
| 2026-05-05 14:52 | 55.60376 | 47.65029 | 26999 ft | 366 kts | 286° |
| 2026-05-05 14:52 | 55.61091 | 47.60734 | 27377 ft | 368 kts | 286° |
| 2026-05-05 14:52 | 55.61817 | 47.56359 | 27794 ft | 370 kts | 286° |
| 2026-05-05 14:52 | 55.62537 | 47.52011 | 28182 ft | 372 kts | 286° |
| 2026-05-05 14:53 | 55.63265 | 47.47604 | 28552 ft | 374 kts | 286° |
| 2026-05-05 14:53 | 55.63990 | 47.43199 | 28920 ft | 376 kts | 286° |
| 2026-05-05 14:53 | 55.64716 | 47.38787 | 29329 ft | 376 kts | 286° |
| 2026-05-05 14:53 | 55.65448 | 47.34316 | 29651 ft | 379 kts | 285° |
| 2026-05-05 14:54 | 55.66169 | 47.29907 | 30020 ft | 380 kts | 285° |
| 2026-05-05 14:54 | 55.66911 | 47.25360 | 30363 ft | 382 kts | 285° |
| 2026-05-05 14:54 | 55.67634 | 47.20914 | 30716 ft | 383 kts | 285° |
| 2026-05-05 14:54 | 55.68377 | 47.16340 | 30963 ft | 387 kts | 285° |
| 2026-05-05 14:55 | 55.69112 | 47.11797 | 31311 ft | 388 kts | 285° |
| 2026-05-05 14:55 | 55.69855 | 47.07194 | 31547 ft | 391 kts | 285° |
| 2026-05-05 14:55 | 55.70601 | 47.02567 | 31927 ft | 391 kts | 285° |
| 2026-05-05 14:55 | 55.71345 | 46.97938 | 32136 ft | 395 kts | 285° |
| 2026-05-05 14:56 | 55.72097 | 46.93252 | 32462 ft | 395 kts | 285° |
| 2026-05-05 14:56 | 55.72850 | 46.88543 | 32692 ft | 398 kts | 285° |
| 2026-05-05 14:56 | 55.73601 | 46.83836 | 32992 ft | 400 kts | 285° |
| 2026-05-05 14:56 | 55.74356 | 46.79084 | 33224 ft | 402 kts | 285° |
| 2026-05-05 14:57 | 55.75119 | 46.74271 | 33444 ft | 405 kts | 285° |
| 2026-05-05 14:57 | 55.75875 | 46.69489 | 33758 ft | 405 kts | 284° |
| 2026-05-05 14:57 | 55.76638 | 46.64652 | 33975 ft | 408 kts | 284° |
| 2026-05-05 14:57 | 55.77394 | 46.59843 | 34163 ft | 411 kts | 285° |
| 2026-05-05 14:58 | 55.78158 | 46.54972 | 34464 ft | 411 kts | 284° |
| 2026-05-05 14:58 | 55.78926 | 46.50057 | 34593 ft | 415 kts | 284° |
| 2026-05-05 14:58 | 55.79629 | 46.45096 | 34882 ft | 414 kts | 281° |
| 2026-05-05 14:58 | 55.80164 | 46.40124 | 35070 ft | 415 kts | 279° |
| 2026-05-05 14:59 | 55.80612 | 46.35054 | 35260 ft | 417 kts | 278° |
| 2026-05-05 14:59 | 55.81026 | 46.29931 | 35559 ft | 415 kts | 277° |
| 2026-05-05 14:59 | 55.81422 | 46.24913 | 35805 ft | 414 kts | 277° |
| 2026-05-05 14:59 | 55.81822 | 46.19877 | 35818 ft | 417 kts | 277° |
| 2026-05-05 15:00 | 55.82513 | 46.11368 | 35831 ft | 415 kts | 277° |
| 2026-05-05 15:00 | 55.83485 | 45.99640 | 35834 ft | 412 kts | 277° |
| 2026-05-05 15:01 | 55.84321 | 45.89593 | 35823 ft | 414 kts | 277° |
| 2026-05-05 15:01 | 55.85155 | 45.79494 | 35817 ft | 414 kts | 277° |
| 2026-05-05 15:02 | 55.85984 | 45.69369 | 35822 ft | 415 kts | 277° |
| 2026-05-05 15:02 | 55.86805 | 45.59243 | 35825 ft | 414 kts | 277° |
| 2026-05-05 15:03 | 55.87614 | 45.49147 | 35828 ft | 413 kts | 277° |
| 2026-05-05 15:03 | 55.88415 | 45.39049 | 35823 ft | 415 kts | 277° |
| 2026-05-05 15:04 | 55.89214 | 45.28889 | 35820 ft | 414 kts | 276° |
| 2026-05-05 15:04 | 55.90000 | 45.18769 | 35818 ft | 415 kts | 276° |
| 2026-05-05 15:05 | 55.91161 | 45.03595 | 35817 ft | 416 kts | 276° |
| 2026-05-05 15:06 | 55.91935 | 44.93344 | 35821 ft | 416 kts | 276° |
| 2026-05-05 15:06 | 55.92690 | 44.83231 | 35817 ft | 414 kts | 276° |
| 2026-05-05 15:07 | 55.93442 | 44.73042 | 35808 ft | 415 kts | 276° |
| 2026-05-05 15:07 | 55.94183 | 44.62884 | 35810 ft | 414 kts | 276° |
| 2026-05-05 15:08 | 55.94912 | 44.52777 | 35808 ft | 413 kts | 276° |
| 2026-05-05 15:08 | 55.95636 | 44.42625 | 35812 ft | 413 kts | 277° |
| 2026-05-05 15:09 | 55.96352 | 44.32458 | 35817 ft | 415 kts | 276° |
| 2026-05-05 15:09 | 55.97057 | 44.22320 | 35823 ft | 414 kts | 276° |
| 2026-05-05 15:10 | 55.97753 | 44.12201 | 35813 ft | 412 kts | 276° |
| 2026-05-05 15:10 | 55.98440 | 44.02063 | 35814 ft | 412 kts | 276° |
| 2026-05-05 15:11 | 55.99115 | 43.91978 | 35819 ft | 413 kts | 276° |
| 2026-05-05 15:11 | 55.99789 | 43.81804 | 35818 ft | 412 kts | 276° |
| 2026-05-05 15:12 | 56.00450 | 43.71705 | 35823 ft | 411 kts | 276° |
| 2026-05-05 15:12 | 56.01102 | 43.61606 | 35825 ft | 411 kts | 276° |
| 2026-05-05 15:13 | 56.01747 | 43.51476 | 35827 ft | 410 kts | 276° |
| 2026-05-05 15:13 | 56.02382 | 43.41405 | 35826 ft | 410 kts | 276° |
| 2026-05-05 15:14 | 56.02982 | 43.31324 | 35835 ft | 410 kts | 274° |
| 2026-05-05 15:14 | 56.03224 | 43.21209 | 35837 ft | 409 kts | 271° |
| 2026-05-05 15:15 | 56.03312 | 43.11004 | 35829 ft | 410 kts | 271° |
| 2026-05-05 15:15 | 56.03418 | 43.00888 | 35833 ft | 410 kts | 271° |
| 2026-05-05 15:16 | 56.03548 | 42.90709 | 35818 ft | 410 kts | 271° |
| 2026-05-05 15:16 | 56.03683 | 42.80537 | 35813 ft | 410 kts | 271° |
| 2026-05-05 15:17 | 56.03814 | 42.70396 | 35827 ft | 410 kts | 271° |
| 2026-05-05 15:17 | 56.04007 | 42.60317 | 35819 ft | 410 kts | 275° |
| 2026-05-05 15:18 | 56.05365 | 42.50457 | 35827 ft | 412 kts | 293° |
| 2026-05-05 15:18 | 56.08205 | 42.41575 | 35851 ft | 415 kts | 300° |
| 2026-05-05 15:19 | 56.11379 | 42.32964 | 35844 ft | 416 kts | 301° |
| 2026-05-05 15:19 | 56.14574 | 42.24379 | 35828 ft | 414 kts | 300° |
| 2026-05-05 15:20 | 56.17725 | 42.15797 | 35828 ft | 414 kts | 300° |
| 2026-05-05 15:20 | 56.20918 | 42.07216 | 35833 ft | 416 kts | 302° |
| 2026-05-05 15:21 | 56.24429 | 41.98974 | 35835 ft | 418 kts | 305° |
| 2026-05-05 15:21 | 56.28021 | 41.90795 | 35830 ft | 417 kts | 304° |
| 2026-05-05 15:22 | 56.31584 | 41.82569 | 35831 ft | 416 kts | 304° |
| 2026-05-05 15:22 | 56.35083 | 41.74381 | 35830 ft | 416 kts | 304° |
| 2026-05-05 15:23 | 56.38592 | 41.66094 | 35829 ft | 416 kts | 304° |
| 2026-05-05 15:23 | 56.42069 | 41.57844 | 35830 ft | 414 kts | 303° |
| 2026-05-05 15:24 | 56.45547 | 41.49548 | 35827 ft | 414 kts | 303° |
| 2026-05-05 15:24 | 56.48984 | 41.41333 | 35825 ft | 414 kts | 303° |
| 2026-05-05 15:25 | 56.52450 | 41.33018 | 35815 ft | 414 kts | 302° |
| 2026-05-05 15:25 | 56.55884 | 41.24736 | 35814 ft | 414 kts | 302° |
| 2026-05-05 15:26 | 56.59318 | 41.16432 | 35812 ft | 413 kts | 302° |
| 2026-05-05 15:26 | 56.62677 | 41.08059 | 35819 ft | 413 kts | 298° |
| 2026-05-05 15:27 | 56.65634 | 40.99155 | 35816 ft | 410 kts | 295° |
| 2026-05-05 15:27 | 56.68445 | 40.90183 | 35811 ft | 411 kts | 295° |
| 2026-05-05 15:28 | 56.71281 | 40.81185 | 35818 ft | 412 kts | 296° |
| 2026-05-05 15:28 | 56.74140 | 40.72206 | 35810 ft | 410 kts | 296° |
| 2026-05-05 15:29 | 56.76995 | 40.63249 | 35809 ft | 412 kts | 296° |
| 2026-05-05 15:29 | 56.79858 | 40.54245 | 35813 ft | 412 kts | 296° |
| 2026-05-05 15:30 | 56.82718 | 40.45226 | 35808 ft | 413 kts | 296° |
| 2026-05-05 15:30 | 56.85565 | 40.36204 | 35805 ft | 414 kts | 296° |
| 2026-05-05 15:31 | 56.88416 | 40.27145 | 35807 ft | 412 kts | 295° |
| 2026-05-05 15:31 | 56.91255 | 40.18095 | 35805 ft | 410 kts | 295° |
| 2026-05-05 15:32 | 56.94076 | 40.09063 | 35816 ft | 411 kts | 295° |
| 2026-05-05 15:32 | 56.96904 | 39.99961 | 35823 ft | 412 kts | 295° |
| 2026-05-05 15:33 | 56.99704 | 39.90928 | 35827 ft | 409 kts | 295° |
| 2026-05-05 15:33 | 57.02504 | 39.81860 | 35827 ft | 410 kts | 295° |
| 2026-05-05 15:34 | 57.05301 | 39.72767 | 35826 ft | 410 kts | 295° |
| 2026-05-05 15:34 | 57.08088 | 39.63674 | 35809 ft | 410 kts | 295° |
| 2026-05-05 15:35 | 57.10870 | 39.54563 | 35809 ft | 412 kts | 295° |
| 2026-05-05 15:35 | 57.13653 | 39.45410 | 35829 ft | 412 kts | 295° |
| 2026-05-05 15:36 | 57.16442 | 39.36210 | 35807 ft | 411 kts | 295° |
| 2026-05-05 15:36 | 57.19211 | 39.27033 | 35799 ft | 411 kts | 294° |
| 2026-05-05 15:37 | 57.21965 | 39.17855 | 35782 ft | 411 kts | 295° |
| 2026-05-05 15:37 | 57.24711 | 39.08678 | 35795 ft | 409 kts | 295° |
| 2026-05-05 15:38 | 57.27443 | 38.99515 | 35798 ft | 411 kts | 295° |
| 2026-05-05 15:38 | 57.30180 | 38.90299 | 35789 ft | 411 kts | 295° |
| 2026-05-05 15:39 | 57.32917 | 38.81048 | 35803 ft | 410 kts | 295° |
| 2026-05-05 15:39 | 57.35632 | 38.71838 | 35807 ft | 410 kts | 295° |
| 2026-05-05 15:40 | 57.38348 | 38.62581 | 35805 ft | 409 kts | 295° |
| 2026-05-05 15:40 | 57.41041 | 38.53374 | 35802 ft | 409 kts | 295° |
| 2026-05-05 15:41 | 57.43758 | 38.44042 | 35802 ft | 411 kts | 295° |
| 2026-05-05 15:41 | 57.46444 | 38.34774 | 35808 ft | 410 kts | 294° |
| 2026-05-05 15:42 | 57.49120 | 38.25509 | 35805 ft | 410 kts | 294° |
| 2026-05-05 15:42 | 57.51813 | 38.16151 | 35803 ft | 409 kts | 294° |
| 2026-05-05 15:43 | 57.54474 | 38.06861 | 35808 ft | 410 kts | 294° |
| 2026-05-05 15:43 | 57.57163 | 37.97440 | 35813 ft | 410 kts | 294° |
| 2026-05-05 15:44 | 57.59811 | 37.88126 | 35811 ft | 410 kts | 294° |
| 2026-05-05 15:44 | 57.62463 | 37.78756 | 35795 ft | 409 kts | 294° |
| 2026-05-05 15:45 | 57.65101 | 37.69395 | 35799 ft | 410 kts | 295° |
| 2026-05-05 15:45 | 57.67748 | 37.59964 | 35795 ft | 410 kts | 294° |
| 2026-05-05 15:46 | 57.70364 | 37.50608 | 35801 ft | 409 kts | 294° |
| 2026-05-05 15:46 | 57.72996 | 37.41155 | 35795 ft | 410 kts | 294° |
| 2026-05-05 15:47 | 57.75617 | 37.31707 | 35798 ft | 410 kts | 294° |
| 2026-05-05 15:47 | 57.78219 | 37.22291 | 35793 ft | 409 kts | 294° |
| 2026-05-05 15:48 | 57.80821 | 37.12833 | 35792 ft | 410 kts | 294° |
| 2026-05-05 15:48 | 57.83419 | 37.03348 | 35777 ft | 409 kts | 294° |
| 2026-05-05 15:49 | 57.86005 | 36.93869 | 35785 ft | 409 kts | 294° |
| 2026-05-05 15:49 | 57.88570 | 36.84418 | 35768 ft | 409 kts | 294° |
| 2026-05-05 15:50 | 57.91146 | 36.74900 | 35798 ft | 409 kts | 294° |
| 2026-05-05 15:50 | 57.93697 | 36.65439 | 35796 ft | 409 kts | 294° |
| 2026-05-05 15:51 | 57.96247 | 36.55931 | 35788 ft | 409 kts | 294° |
| 2026-05-05 15:51 | 57.98794 | 36.46395 | 35784 ft | 408 kts | 294° |
| 2026-05-05 15:52 | 58.01338 | 36.36829 | 35783 ft | 408 kts | 294° |
| 2026-05-05 15:52 | 58.03850 | 36.27346 | 35782 ft | 408 kts | 293° |
| 2026-05-05 15:53 | 58.06366 | 36.17811 | 35783 ft | 406 kts | 293° |
| 2026-05-05 15:53 | 58.08868 | 36.08285 | 35784 ft | 405 kts | 293° |
| 2026-05-05 15:54 | 58.11364 | 35.98745 | 35771 ft | 406 kts | 293° |
| 2026-05-05 15:54 | 58.13848 | 35.89207 | 35768 ft | 406 kts | 293° |
| 2026-05-05 15:55 | 58.16323 | 35.79664 | 35764 ft | 407 kts | 293° |
| 2026-05-05 15:55 | 58.18809 | 35.70035 | 35769 ft | 407 kts | 292° |
| 2026-05-05 15:56 | 58.21270 | 35.60467 | 35775 ft | 406 kts | 292° |
| 2026-05-05 15:56 | 58.23730 | 35.50848 | 35776 ft | 408 kts | 292° |
| 2026-05-05 15:57 | 58.26185 | 35.41225 | 35777 ft | 406 kts | 292° |
| 2026-05-05 15:57 | 58.28619 | 35.31640 | 35775 ft | 405 kts | 292° |
| 2026-05-05 15:58 | 58.31047 | 35.22031 | 35775 ft | 405 kts | 292° |
| 2026-05-05 15:58 | 58.33474 | 35.12388 | 35776 ft | 405 kts | 291° |
| 2026-05-05 15:59 | 58.35885 | 35.02774 | 35770 ft | 406 kts | 291° |
| 2026-05-05 15:59 | 58.38295 | 34.93113 | 35764 ft | 406 kts | 291° |
| 2026-05-05 16:00 | 58.40709 | 34.83394 | 35767 ft | 405 kts | 291° |
| 2026-05-05 16:00 | 58.43106 | 34.73704 | 35767 ft | 406 kts | 291° |
| 2026-05-05 16:01 | 58.45496 | 34.63999 | 35759 ft | 406 kts | 291° |
| 2026-05-05 16:01 | 58.47865 | 34.54331 | 35759 ft | 404 kts | 291° |
| 2026-05-05 16:02 | 58.50233 | 34.44613 | 35760 ft | 406 kts | 291° |
| 2026-05-05 16:02 | 58.52607 | 34.34843 | 35763 ft | 406 kts | 290° |
| 2026-05-05 16:03 | 58.54963 | 34.25114 | 35757 ft | 404 kts | 290° |
| 2026-05-05 16:03 | 58.57314 | 34.15343 | 35756 ft | 405 kts | 290° |
| 2026-05-05 16:04 | 58.59653 | 34.05576 | 35753 ft | 406 kts | 290° |
| 2026-05-05 16:04 | 58.61988 | 33.95790 | 35749 ft | 405 kts | 290° |
| 2026-05-05 16:05 | 58.64331 | 33.85928 | 35748 ft | 406 kts | 290° |
| 2026-05-05 16:05 | 58.66529 | 33.76640 | 35739 ft | 406 kts | 290° |
| 2026-05-05 16:06 | 58.68837 | 33.66843 | 35748 ft | 405 kts | 290° |
| 2026-05-05 16:06 | 58.71118 | 33.57137 | 35503 ft | 395 kts | 290° |
| 2026-05-05 16:06 | 58.72250 | 33.52300 | 35119 ft | 395 kts | 290° |
| 2026-05-05 16:07 | 58.73361 | 33.47527 | 34434 ft | 400 kts | 290° |
| 2026-05-05 16:07 | 58.74492 | 33.42644 | 33778 ft | 400 kts | 290° |
| 2026-05-05 16:07 | 58.75613 | 33.37804 | 33250 ft | 397 kts | 290° |
| 2026-05-05 16:07 | 58.76737 | 33.32952 | 32712 ft | 394 kts | 289° |
| 2026-05-05 16:08 | 58.77834 | 33.28209 | 32180 ft | 392 kts | 289° |
| 2026-05-05 16:08 | 58.78939 | 33.23421 | 31650 ft | 389 kts | 289° |
| 2026-05-05 16:08 | 58.80019 | 33.18724 | 31126 ft | 386 kts | 289° |
| 2026-05-05 16:08 | 58.81089 | 33.14053 | 30600 ft | 383 kts | 288° |
| 2026-05-05 16:09 | 58.82163 | 33.09359 | 30059 ft | 380 kts | 289° |
| 2026-05-05 16:09 | 58.83217 | 33.04745 | 29541 ft | 377 kts | 289° |
| 2026-05-05 16:09 | 58.84260 | 33.00179 | 29029 ft | 374 kts | 289° |
| 2026-05-05 16:09 | 58.85302 | 32.95604 | 28516 ft | 370 kts | 289° |
| 2026-05-05 16:10 | 58.86328 | 32.91087 | 28007 ft | 367 kts | 289° |
| 2026-05-05 16:10 | 58.87329 | 32.86666 | 27513 ft | 364 kts | 289° |
| 2026-05-05 16:10 | 58.88344 | 32.82182 | 27003 ft | 361 kts | 289° |
| 2026-05-05 16:10 | 58.89334 | 32.77793 | 26503 ft | 358 kts | 289° |
| 2026-05-05 16:11 | 58.90315 | 32.73440 | 26016 ft | 354 kts | 289° |
| 2026-05-05 16:11 | 58.93209 | 32.60535 | 24554 ft | 345 kts | 289° |
| 2026-05-05 16:12 | 58.94156 | 32.56291 | 24075 ft | 341 kts | 289° |
| 2026-05-05 16:12 | 58.96003 | 32.47992 | 23138 ft | 335 kts | 289° |
| 2026-05-05 16:13 | 58.98704 | 32.35810 | 21769 ft | 325 kts | 289° |
| 2026-05-05 16:13 | 58.99584 | 32.31826 | 21311 ft | 323 kts | 288° |
| 2026-05-05 16:13 | 59.00468 | 32.27817 | 20849 ft | 320 kts | 288° |
| 2026-05-05 16:14 | 59.02186 | 32.19988 | 19966 ft | 315 kts | 288° |
| 2026-05-05 16:14 | 59.03876 | 32.12252 | 19104 ft | 310 kts | 287° |
| 2026-05-05 16:15 | 59.05529 | 32.04665 | 18249 ft | 304 kts | 288° |
| 2026-05-05 16:15 | 59.07159 | 31.97182 | 17410 ft | 300 kts | 287° |
| 2026-05-05 16:16 | 59.08754 | 31.89807 | 16555 ft | 296 kts | 288° |
| 2026-05-05 16:16 | 59.10412 | 31.82584 | 15726 ft | 294 kts | 294° |
| 2026-05-05 16:17 | 59.13003 | 31.76365 | 14898 ft | 301 kts | 308° |
| 2026-05-05 16:17 | 59.14520 | 31.73567 | 14461 ft | 301 kts | 309° |
| 2026-05-05 16:18 | 59.17541 | 31.68049 | 13602 ft | 297 kts | 309° |
| 2026-05-05 16:18 | 59.19035 | 31.65244 | 13193 ft | 295 kts | 309° |
| 2026-05-05 16:18 | 59.21938 | 31.59718 | 12349 ft | 294 kts | 309° |
| 2026-05-05 16:19 | 59.23393 | 31.56938 | 11923 ft | 292 kts | 309° |
| 2026-05-05 16:19 | 59.24842 | 31.54175 | 11519 ft | 291 kts | 309° |
| 2026-05-05 16:19 | 59.27714 | 31.48686 | 10679 ft | 288 kts | 309° |
| 2026-05-05 16:20 | 59.30555 | 31.43236 | 9966 ft | 283 kts | 309° |
| 2026-05-05 16:20 | 59.33261 | 31.38053 | 9555 ft | 268 kts | 309° |
| 2026-05-05 16:21 | 59.35919 | 31.32915 | 8828 ft | 267 kts | 308° |
| 2026-05-05 16:22 | 59.39836 | 31.25352 | 7794 ft | 263 kts | 309° |
| 2026-05-05 16:22 | 59.42414 | 31.20353 | 7138 ft | 261 kts | 309° |
| 2026-05-05 16:23 | 59.44975 | 31.15362 | 6456 ft | 259 kts | 309° |
| 2026-05-05 16:23 | 59.46249 | 31.12881 | 6134 ft | 258 kts | 309° |
| 2026-05-05 16:23 | 59.48767 | 31.07971 | 5474 ft | 255 kts | 310° |
| 2026-05-05 16:24 | 59.50028 | 31.05511 | 5150 ft | 254 kts | 310° |
| 2026-05-05 16:24 | 59.51265 | 31.03091 | 4983 ft | 246 kts | 310° |
| 2026-05-05 16:24 | 59.53510 | 30.98214 | 4996 ft | 241 kts | 305° |
| 2026-05-05 16:25 | 59.54591 | 30.95675 | 4986 ft | 244 kts | 305° |
| 2026-05-05 16:25 | 59.56776 | 30.90628 | 4981 ft | 243 kts | 306° |
| 2026-05-05 16:25 | 59.57866 | 30.88128 | 4987 ft | 244 kts | 306° |
| 2026-05-05 16:26 | 59.60062 | 30.83091 | 4428 ft | 244 kts | 307° |
| 2026-05-05 16:26 | 59.62247 | 30.78066 | 3957 ft | 234 kts | 307° |
| 2026-05-05 16:27 | 59.63288 | 30.75669 | 3757 ft | 229 kts | 307° |
| 2026-05-05 16:27 | 59.64303 | 30.73331 | 3663 ft | 220 kts | 307° |
| 2026-05-05 16:27 | 59.65281 | 30.71075 | 3604 ft | 214 kts | 307° |
| 2026-05-05 16:27 | 59.66241 | 30.68856 | 3535 ft | 213 kts | 308° |
| 2026-05-05 16:28 | 59.67311 | 30.66847 | 3476 ft | 209 kts | 319° |
| 2026-05-05 16:28 | 59.68489 | 30.65226 | 3467 ft | 206 kts | 322° |
| 2026-05-05 16:28 | 59.69690 | 30.63639 | 3252 ft | 215 kts | 321° |
| 2026-05-05 16:28 | 59.70919 | 30.61964 | 3050 ft | 211 kts | 321° |
| 2026-05-05 16:29 | 59.72115 | 30.60307 | 2895 ft | 207 kts | 321° |
| 2026-05-05 16:29 | 59.73270 | 30.58696 | 2740 ft | 199 kts | 320° |
| 2026-05-05 16:29 | 59.74323 | 30.57070 | 2527 ft | 189 kts | 308° |
| 2026-05-05 16:29 | 59.74874 | 30.54859 | 2474 ft | 170 kts | 287° |
| 2026-05-05 16:30 | 59.75227 | 30.52746 | 2480 ft | 156 kts | 288° |
| 2026-05-05 16:30 | 59.75570 | 30.50744 | 2465 ft | 154 kts | 287° |
| 2026-05-05 16:30 | 59.75904 | 30.48670 | 2286 ft | 162 kts | 287° |
| 2026-05-05 16:30 | 59.76227 | 30.46625 | 2046 ft | 150 kts | 287° |
| 2026-05-05 16:31 | 59.76523 | 30.44708 | 1818 ft | 136 kts | 287° |
| 2026-05-05 16:31 | 59.76778 | 30.43055 | 1681 ft | 120 kts | 287° |
| 2026-05-05 16:31 | 59.77015 | 30.41488 | 1497 ft | 119 kts | 287° |
| 2026-05-05 16:31 | 59.77259 | 30.39883 | 1351 ft | 123 kts | 287° |
| 2026-05-05 16:32 | 59.77505 | 30.38264 | 1167 ft | 124 kts | 287° |
| 2026-05-05 16:32 | 59.77754 | 30.36625 | 993 ft | 122 kts | 287° |
| 2026-05-05 16:32 | 59.78004 | 30.34967 | 889 ft | 123 kts | 287° |
| 2026-05-05 16:32 | 59.78264 | 30.33339 | 683 ft | 126 kts | 288° |
| 2026-05-05 16:33 | 59.78531 | 30.31689 | 499 ft | 127 kts | 287° |
| 2026-05-05 16:33 | 59.78780 | 30.30010 | 310 ft | 128 kts | 285° |
| 2026-05-05 16:33 | 59.79030 | 30.28312 | 139 ft | 127 kts | 286° |
| 2026-05-05 16:33 | 59.79261 | 30.26759 | 89 ft | 98 kts | 286° |
| 2026-05-05 16:34 | 59.79393 | 30.25864 | 87 ft | 38 kts | 287° |
| 2026-05-05 16:34 | 59.79431 | 30.25602 | 87 ft | 13 kts | 285° |
| 2026-05-05 16:34 | 59.79480 | 30.25526 | 87 ft | 9 kts | 41° |
| 2026-05-05 16:34 | 59.79504 | 30.25641 | 87 ft | 8 kts | 77° |
| 2026-05-05 16:35 | 59.79519 | 30.25761 | 88 ft | 11 kts | 75° |
| 2026-05-05 16:35 | 59.79542 | 30.25988 | 88 ft | 19 kts | 88° |
| 2026-05-05 16:35 | 59.79517 | 30.26225 | 87 ft | 15 kts | 106° |
| 2026-05-05 16:35 | 59.79532 | 30.26361 | 87 ft | 9 kts | 26° |
| 2026-05-05 16:36 | 59.79604 | 30.26406 | 88 ft | 14 kts | 16° |
| 2026-05-05 16:36 | 59.79738 | 30.26484 | 88 ft | 21 kts | 16° |
| 2026-05-05 16:36 | 59.79852 | 30.26551 | 87 ft | 13 kts | 15° |
| 2026-05-05 16:36 | 59.79887 | 30.26476 | 87 ft | 8 kts | 283° |
| 2026-05-05 16:37 | 59.79900 | 30.26377 | 88 ft | 5 kts | 285° |
| 2026-05-05 16:37 | 59.79906 | 30.26339 | 87 ft | 0 kts | 286° |